sensor_id;sensor_type;location;lat;lon;timestamp;temperature;humidity
19880;DHT22;10102;50.828;4.416;2024-03-06T00:01:05;9.80;99.90
19880;DHT22;10102;50.828;4.416;2024-03-06T00:03:30;9.80;99.90
19880;DHT22;10102;50.828;4.416;2024-03-06T00:05:56;9.80;99.90
19880;DHT22;10102;50.828;4.416;2024-03-06T00:08:22;9.70;99.90
19880;DHT22;10102;50.828;4.416;2024-03-06T00:10:47;9.70;99.90
19880;DHT22;10102;50.828;4.416;2024-03-06T00:13:13;9.60;99.90
19880;DHT22;10102;50.828;4.416;2024-03-06T00:15:39;9.60;99.90
19880;DHT22;10102;50.828;4.416;2024-03-06T00:18:05;9.50;99.90
19880;DHT22;10102;50.828;4.416;2024-03-06T00:20:31;9.60;99.90
19880;DHT22;10102;50.828;4.416;2024-03-06T00:25:25;9.50;99.90
19880;DHT22;10102;50.828;4.416;2024-03-06T00:27:51;9.50;99.90
19880;DHT22;10102;50.828;4.416;2024-03-06T00:30:18;9.30;99.90
19880;DHT22;10102;50.828;4.416;2024-03-06T00:32:44;8.90;99.90
19880;DHT22;10102;50.828;4.416;2024-03-06T00:35:09;9.20;99.90
19880;DHT22;10102;50.828;4.416;2024-03-06T00:37:37;9.20;99.90
19880;DHT22;10102;50.828;4.416;2024-03-06T00:40:03;9.10;99.90
19880;DHT22;10102;50.828;4.416;2024-03-06T00:42:29;9.10;99.90
19880;DHT22;10102;50.828;4.416;2024-03-06T00:44:55;9.10;99.90
19880;DHT22;10102;50.828;4.416;2024-03-06T00:47:21;9.20;99.90
19880;DHT22;10102;50.828;4.416;2024-03-06T00:49:47;9.00;99.90
19880;DHT22;10102;50.828;4.416;2024-03-06T00:52:12;8.90;99.90
19880;DHT22;10102;50.828;4.416;2024-03-06T00:54:38;9.00;99.90
19880;DHT22;10102;50.828;4.416;2024-03-06T00:57:04;9.10;99.90
19880;DHT22;10102;50.828;4.416;2024-03-06T00:59:30;9.00;99.90
19880;DHT22;10102;50.828;4.416;2024-03-06T01:01:55;8.50;99.90
19880;DHT22;10102;50.828;4.416;2024-03-06T01:04:22;8.70;99.90
19880;DHT22;10102;50.828;4.416;2024-03-06T01:06:48;8.70;99.90
19880;DHT22;10102;50.828;4.416;2024-03-06T01:09:14;8.60;99.90
19880;DHT22;10102;50.828;4.416;2024-03-06T01:11:40;8.60;99.90
19880;DHT22;10102;50.828;4.416;2024-03-06T01:14:06;8.50;99.90
19880;DHT22;10102;50.828;4.416;2024-03-06T01:16:32;8.50;99.90
19880;DHT22;10102;50.828;4.416;2024-03-06T01:18:57;8.50;99.90
19880;DHT22;10102;50.828;4.416;2024-03-06T01:21:23;8.40;99.90
19880;DHT22;10102;50.828;4.416;2024-03-06T01:23:49;8.40;99.90
19880;DHT22;10102;50.828;4.416;2024-03-06T01:26:14;8.30;99.90
19880;DHT22;10102;50.828;4.416;2024-03-06T01:31:06;8.20;99.90
19880;DHT22;10102;50.828;4.416;2024-03-06T01:35:58;8.30;99.90
19880;DHT22;10102;50.828;4.416;2024-03-06T01:38:23;8.20;99.90
19880;DHT22;10102;50.828;4.416;2024-03-06T01:40:49;8.30;99.90
19880;DHT22;10102;50.828;4.416;2024-03-06T01:43:25;8.20;99.90
19880;DHT22;10102;50.828;4.416;2024-03-06T01:45:51;8.20;99.90
19880;DHT22;10102;50.828;4.416;2024-03-06T01:48:23;7.40;99.90
19880;DHT22;10102;50.828;4.416;2024-03-06T01:50:49;8.10;99.90
19880;DHT22;10102;50.828;4.416;2024-03-06T01:53:16;8.20;99.90
19880;DHT22;10102;50.828;4.416;2024-03-06T01:55:42;7.80;99.90
19880;DHT22;10102;50.828;4.416;2024-03-06T01:58:08;7.80;99.90
19880;DHT22;10102;50.828;4.416;2024-03-06T02:00:35;7.80;99.90
19880;DHT22;10102;50.828;4.416;2024-03-06T02:03:01;7.90;99.90
19880;DHT22;10102;50.828;4.416;2024-03-06T02:05:28;7.90;99.90
19880;DHT22;10102;50.828;4.416;2024-03-06T02:07:58;7.90;99.90
19880;DHT22;10102;50.828;4.416;2024-03-06T02:10:25;7.60;99.90
19880;DHT22;10102;50.828;4.416;2024-03-06T02:12:52;8.00;99.90
19880;DHT22;10102;50.828;4.416;2024-03-06T02:17:44;7.70;99.90
19880;DHT22;10102;50.828;4.416;2024-03-06T02:20:12;7.70;99.90
19880;DHT22;10102;50.828;4.416;2024-03-06T02:22:40;7.80;99.90
19880;DHT22;10102;50.828;4.416;2024-03-06T02:25:06;7.80;99.90
19880;DHT22;10102;50.828;4.416;2024-03-06T02:27:32;7.60;99.90
19880;DHT22;10102;50.828;4.416;2024-03-06T02:32:24;7.60;99.90
19880;DHT22;10102;50.828;4.416;2024-03-06T02:34:51;7.40;99.90
19880;DHT22;10102;50.828;4.416;2024-03-06T02:37:17;7.50;99.90
19880;DHT22;10102;50.828;4.416;2024-03-06T02:39:43;7.50;99.90
19880;DHT22;10102;50.828;4.416;2024-03-06T02:42:08;7.60;99.90
19880;DHT22;10102;50.828;4.416;2024-03-06T02:44:34;8.00;99.90
19880;DHT22;10102;50.828;4.416;2024-03-06T02:47:00;7.50;99.90
19880;DHT22;10102;50.828;4.416;2024-03-06T02:49:25;7.40;99.90
19880;DHT22;10102;50.828;4.416;2024-03-06T02:51:51;7.30;99.90
19880;DHT22;10102;50.828;4.416;2024-03-06T02:54:17;7.30;99.90
19880;DHT22;10102;50.828;4.416;2024-03-06T02:56:43;7.80;99.90
19880;DHT22;10102;50.828;4.416;2024-03-06T02:59:08;7.20;99.90
19880;DHT22;10102;50.828;4.416;2024-03-06T03:01:34;7.20;99.90
19880;DHT22;10102;50.828;4.416;2024-03-06T03:04:00;7.10;99.90
19880;DHT22;10102;50.828;4.416;2024-03-06T03:06:26;7.20;99.90
19880;DHT22;10102;50.828;4.416;2024-03-06T03:08:51;7.30;99.90
19880;DHT22;10102;50.828;4.416;2024-03-06T03:13:43;7.50;99.90
19880;DHT22;10102;50.828;4.416;2024-03-06T03:16:16;7.50;99.90
19880;DHT22;10102;50.828;4.416;2024-03-06T03:18:43;8.00;99.90
19880;DHT22;10102;50.828;4.416;2024-03-06T03:21:09;7.20;99.90
19880;DHT22;10102;50.828;4.416;2024-03-06T03:23:37;6.70;99.90
19880;DHT22;10102;50.828;4.416;2024-03-06T03:26:03;6.30;99.90
19880;DHT22;10102;50.828;4.416;2024-03-06T03:28:32;6.30;99.90
19880;DHT22;10102;50.828;4.416;2024-03-06T03:30:58;6.20;99.90
19880;DHT22;10102;50.828;4.416;2024-03-06T03:35:50;6.40;99.90
19880;DHT22;10102;50.828;4.416;2024-03-06T03:38:16;6.60;99.90
19880;DHT22;10102;50.828;4.416;2024-03-06T03:40:42;6.80;99.90
19880;DHT22;10102;50.828;4.416;2024-03-06T03:43:08;6.90;99.90
19880;DHT22;10102;50.828;4.416;2024-03-06T03:45:34;6.90;99.90
19880;DHT22;10102;50.828;4.416;2024-03-06T03:48:01;6.90;99.90
19880;DHT22;10102;50.828;4.416;2024-03-06T03:50:30;6.90;99.90
19880;DHT22;10102;50.828;4.416;2024-03-06T03:52:56;7.00;99.90
19880;DHT22;10102;50.828;4.416;2024-03-06T03:55:24;7.00;99.90
19880;DHT22;10102;50.828;4.416;2024-03-06T03:57:50;7.00;99.90
19880;DHT22;10102;50.828;4.416;2024-03-06T04:02:43;6.90;99.90
19880;DHT22;10102;50.828;4.416;2024-03-06T04:05:08;7.10;99.90
19880;DHT22;10102;50.828;4.416;2024-03-06T04:07:35;6.70;99.90
19880;DHT22;10102;50.828;4.416;2024-03-06T04:10:02;6.60;99.90
19880;DHT22;10102;50.828;4.416;2024-03-06T04:12:27;6.50;99.90
19880;DHT22;10102;50.828;4.416;2024-03-06T04:14:53;6.40;99.90
19880;DHT22;10102;50.828;4.416;2024-03-06T04:17:20;6.60;99.90
19880;DHT22;10102;50.828;4.416;2024-03-06T04:19:46;6.60;99.90
19880;DHT22;10102;50.828;4.416;2024-03-06T04:24:41;6.70;99.90
19880;DHT22;10102;50.828;4.416;2024-03-06T04:27:08;6.70;99.90
19880;DHT22;10102;50.828;4.416;2024-03-06T04:31:59;6.50;99.90
19880;DHT22;10102;50.828;4.416;2024-03-06T04:34:25;6.30;99.90
19880;DHT22;10102;50.828;4.416;2024-03-06T04:36:51;6.50;99.90
19880;DHT22;10102;50.828;4.416;2024-03-06T04:39:16;6.50;99.90
19880;DHT22;10102;50.828;4.416;2024-03-06T04:41:42;6.60;99.90
19880;DHT22;10102;50.828;4.416;2024-03-06T04:44:07;6.50;99.90
19880;DHT22;10102;50.828;4.416;2024-03-06T04:46:33;6.40;99.90
19880;DHT22;10102;50.828;4.416;2024-03-06T04:48:59;6.60;99.90
19880;DHT22;10102;50.828;4.416;2024-03-06T04:51:24;6.70;99.90
19880;DHT22;10102;50.828;4.416;2024-03-06T04:53:50;6.40;99.90
19880;DHT22;10102;50.828;4.416;2024-03-06T04:56:16;6.50;99.90
19880;DHT22;10102;50.828;4.416;2024-03-06T04:58:44;6.60;99.90
19880;DHT22;10102;50.828;4.416;2024-03-06T05:01:11;6.70;99.90
19880;DHT22;10102;50.828;4.416;2024-03-06T05:03:38;6.60;99.90
19880;DHT22;10102;50.828;4.416;2024-03-06T05:06:04;6.70;99.90
19880;DHT22;10102;50.828;4.416;2024-03-06T05:08:30;6.40;99.90
19880;DHT22;10102;50.828;4.416;2024-03-06T05:10:56;6.30;99.90
19880;DHT22;10102;50.828;4.416;2024-03-06T05:13:22;6.20;99.90
19880;DHT22;10102;50.828;4.416;2024-03-06T05:18:14;6.30;99.90
19880;DHT22;10102;50.828;4.416;2024-03-06T05:25:32;5.80;99.90
19880;DHT22;10102;50.828;4.416;2024-03-06T05:27:59;5.50;99.90
19880;DHT22;10102;50.828;4.416;2024-03-06T05:30:25;5.60;99.90
19880;DHT22;10102;50.828;4.416;2024-03-06T05:32:50;5.60;99.90
19880;DHT22;10102;50.828;4.416;2024-03-06T05:35:17;5.70;99.90
19880;DHT22;10102;50.828;4.416;2024-03-06T05:37:43;5.90;99.90
19880;DHT22;10102;50.828;4.416;2024-03-06T05:40:10;6.00;99.90
19880;DHT22;10102;50.828;4.416;2024-03-06T05:47:36;5.70;99.90
19880;DHT22;10102;50.828;4.416;2024-03-06T05:50:04;5.70;99.90
19880;DHT22;10102;50.828;4.416;2024-03-06T05:52:31;5.90;99.90
19880;DHT22;10102;50.828;4.416;2024-03-06T05:54:57;5.80;99.90
19880;DHT22;10102;50.828;4.416;2024-03-06T06:02:14;5.90;99.90
19880;DHT22;10102;50.828;4.416;2024-03-06T06:07:11;6.00;99.90
19880;DHT22;10102;50.828;4.416;2024-03-06T06:12:03;5.90;99.90
19880;DHT22;10102;50.828;4.416;2024-03-06T06:14:29;5.60;99.90
19880;DHT22;10102;50.828;4.416;2024-03-06T06:16:56;5.50;99.90
19880;DHT22;10102;50.828;4.416;2024-03-06T06:19:21;5.60;99.90
19880;DHT22;10102;50.828;4.416;2024-03-06T06:21:47;5.60;99.90
19880;DHT22;10102;50.828;4.416;2024-03-06T06:24:13;6.00;99.90
19880;DHT22;10102;50.828;4.416;2024-03-06T06:26:40;5.60;99.90
19880;DHT22;10102;50.828;4.416;2024-03-06T06:29:05;5.60;99.90
19880;DHT22;10102;50.828;4.416;2024-03-06T06:31:31;5.50;99.90
19880;DHT22;10102;50.828;4.416;2024-03-06T06:33:57;5.70;99.90
19880;DHT22;10102;50.828;4.416;2024-03-06T06:38:49;5.70;99.90
19880;DHT22;10102;50.828;4.416;2024-03-06T06:41:15;6.00;99.90
19880;DHT22;10102;50.828;4.416;2024-03-06T06:43:41;5.90;99.90
19880;DHT22;10102;50.828;4.416;2024-03-06T06:46:08;5.80;99.90
19880;DHT22;10102;50.828;4.416;2024-03-06T06:51:00;5.70;99.90
19880;DHT22;10102;50.828;4.416;2024-03-06T06:53:30;5.80;99.90
19880;DHT22;10102;50.828;4.416;2024-03-06T06:58:22;5.90;99.90
19880;DHT22;10102;50.828;4.416;2024-03-06T07:00:48;6.00;99.90
19880;DHT22;10102;50.828;4.416;2024-03-06T07:03:13;6.10;99.90
19880;DHT22;10102;50.828;4.416;2024-03-06T07:05:39;6.20;99.90
19880;DHT22;10102;50.828;4.416;2024-03-06T07:08:07;6.30;99.90
19880;DHT22;10102;50.828;4.416;2024-03-06T07:13:01;6.40;99.90
19880;DHT22;10102;50.828;4.416;2024-03-06T07:15:28;6.40;99.90
19880;DHT22;10102;50.828;4.416;2024-03-06T07:17:54;6.40;99.90
19880;DHT22;10102;50.828;4.416;2024-03-06T07:20:20;6.60;99.90
19880;DHT22;10102;50.828;4.416;2024-03-06T07:22:46;6.50;99.90
19880;DHT22;10102;50.828;4.416;2024-03-06T07:25:11;6.20;99.90
19880;DHT22;10102;50.828;4.416;2024-03-06T07:27:37;6.20;99.90
19880;DHT22;10102;50.828;4.416;2024-03-06T07:30:03;6.30;99.90
19880;DHT22;10102;50.828;4.416;2024-03-06T07:32:29;6.50;99.90
19880;DHT22;10102;50.828;4.416;2024-03-06T07:34:54;6.50;99.90
19880;DHT22;10102;50.828;4.416;2024-03-06T07:37:20;6.50;99.90
19880;DHT22;10102;50.828;4.416;2024-03-06T07:39:46;6.40;99.90
19880;DHT22;10102;50.828;4.416;2024-03-06T07:42:12;6.60;99.90
19880;DHT22;10102;50.828;4.416;2024-03-06T07:44:38;6.80;99.90
19880;DHT22;10102;50.828;4.416;2024-03-06T07:47:04;6.80;99.90
19880;DHT22;10102;50.828;4.416;2024-03-06T07:49:29;6.90;99.90
19880;DHT22;10102;50.828;4.416;2024-03-06T07:51:57;7.00;99.90
19880;DHT22;10102;50.828;4.416;2024-03-06T07:54:23;7.20;99.90
19880;DHT22;10102;50.828;4.416;2024-03-06T07:56:48;7.20;99.90
19880;DHT22;10102;50.828;4.416;2024-03-06T07:59:14;7.20;99.90
19880;DHT22;10102;50.828;4.416;2024-03-06T08:01:42;7.20;99.90
19880;DHT22;10102;50.828;4.416;2024-03-06T08:04:07;7.40;99.90
19880;DHT22;10102;50.828;4.416;2024-03-06T08:06:33;7.50;99.90
19880;DHT22;10102;50.828;4.416;2024-03-06T08:08:59;7.60;99.90
19880;DHT22;10102;50.828;4.416;2024-03-06T08:11:25;7.60;99.90
19880;DHT22;10102;50.828;4.416;2024-03-06T08:13:57;7.70;99.90
19880;DHT22;10102;50.828;4.416;2024-03-06T08:16:23;7.80;99.90
19880;DHT22;10102;50.828;4.416;2024-03-06T08:18:49;7.70;99.90
19880;DHT22;10102;50.828;4.416;2024-03-06T08:21:14;7.90;99.90
19880;DHT22;10102;50.828;4.416;2024-03-06T08:23:40;7.90;99.90
19880;DHT22;10102;50.828;4.416;2024-03-06T08:26:06;8.10;99.90
19880;DHT22;10102;50.828;4.416;2024-03-06T08:28:31;8.30;99.90
19880;DHT22;10102;50.828;4.416;2024-03-06T08:30:57;8.30;99.90
19880;DHT22;10102;50.828;4.416;2024-03-06T08:33:23;8.40;99.90
19880;DHT22;10102;50.828;4.416;2024-03-06T08:35:48;8.50;99.90
19880;DHT22;10102;50.828;4.416;2024-03-06T08:38:14;8.50;99.90
19880;DHT22;10102;50.828;4.416;2024-03-06T08:40:40;8.60;99.90
19880;DHT22;10102;50.828;4.416;2024-03-06T08:43:11;8.70;99.90
19880;DHT22;10102;50.828;4.416;2024-03-06T08:45:38;8.80;99.90
19880;DHT22;10102;50.828;4.416;2024-03-06T08:48:04;8.80;99.90
19880;DHT22;10102;50.828;4.416;2024-03-06T08:50:31;8.70;99.90
19880;DHT22;10102;50.828;4.416;2024-03-06T08:52:56;9.30;99.90
19880;DHT22;10102;50.828;4.416;2024-03-06T08:55:22;9.10;99.90
19880;DHT22;10102;50.828;4.416;2024-03-06T08:57:48;9.20;99.90
19880;DHT22;10102;50.828;4.416;2024-03-06T09:00:16;9.10;99.90
19880;DHT22;10102;50.828;4.416;2024-03-06T09:02:43;9.30;99.90
19880;DHT22;10102;50.828;4.416;2024-03-06T09:05:09;9.20;99.90
19880;DHT22;10102;50.828;4.416;2024-03-06T09:07:36;9.20;99.90
19880;DHT22;10102;50.828;4.416;2024-03-06T09:10:09;9.30;99.90
19880;DHT22;10102;50.828;4.416;2024-03-06T09:12:35;9.50;99.90
19880;DHT22;10102;50.828;4.416;2024-03-06T09:15:02;9.60;99.90
19880;DHT22;10102;50.828;4.416;2024-03-06T09:17:28;9.60;99.90
19880;DHT22;10102;50.828;4.416;2024-03-06T09:19:54;9.70;99.90
19880;DHT22;10102;50.828;4.416;2024-03-06T09:24:46;10.10;99.90
19880;DHT22;10102;50.828;4.416;2024-03-06T09:27:12;10.10;99.90
19880;DHT22;10102;50.828;4.416;2024-03-06T09:29:39;10.50;99.90
19880;DHT22;10102;50.828;4.416;2024-03-06T09:34:31;10.60;99.90
19880;DHT22;10102;50.828;4.416;2024-03-06T09:36:57;10.60;99.90
19880;DHT22;10102;50.828;4.416;2024-03-06T09:41:49;10.30;99.90
19880;DHT22;10102;50.828;4.416;2024-03-06T09:44:16;10.30;99.90
19880;DHT22;10102;50.828;4.416;2024-03-06T09:46:47;10.20;99.90
19880;DHT22;10102;50.828;4.416;2024-03-06T09:49:18;10.10;99.90
19880;DHT22;10102;50.828;4.416;2024-03-06T09:51:48;10.20;99.90
19880;DHT22;10102;50.828;4.416;2024-03-06T09:54:19;10.30;99.90
19880;DHT22;10102;50.828;4.416;2024-03-06T09:56:48;10.40;99.90
19880;DHT22;10102;50.828;4.416;2024-03-06T09:59:14;10.50;99.90
19880;DHT22;10102;50.828;4.416;2024-03-06T10:01:56;10.60;99.90
19880;DHT22;10102;50.828;4.416;2024-03-06T10:04:23;10.90;99.90
19880;DHT22;10102;50.828;4.416;2024-03-06T10:06:54;11.30;99.90
19880;DHT22;10102;50.828;4.416;2024-03-06T10:09:24;11.40;99.90
19880;DHT22;10102;50.828;4.416;2024-03-06T10:11:50;11.70;99.90
19880;DHT22;10102;50.828;4.416;2024-03-06T10:14:18;12.10;99.90
19880;DHT22;10102;50.828;4.416;2024-03-06T10:17:00;12.70;99.90
19880;DHT22;10102;50.828;4.416;2024-03-06T10:19:28;12.70;99.90
19880;DHT22;10102;50.828;4.416;2024-03-06T10:21:54;12.80;99.90
19880;DHT22;10102;50.828;4.416;2024-03-06T10:24:28;12.80;99.90
19880;DHT22;10102;50.828;4.416;2024-03-06T10:26:58;13.20;99.90
19880;DHT22;10102;50.828;4.416;2024-03-06T10:29:26;13.80;99.90
19880;DHT22;10102;50.828;4.416;2024-03-06T10:31:54;13.80;99.90
19880;DHT22;10102;50.828;4.416;2024-03-06T10:34:20;14.00;99.90
19880;DHT22;10102;50.828;4.416;2024-03-06T10:37:03;13.10;99.90
19880;DHT22;10102;50.828;4.416;2024-03-06T10:39:30;12.30;99.90
19880;DHT22;10102;50.828;4.416;2024-03-06T10:42:01;12.90;99.90
19880;DHT22;10102;50.828;4.416;2024-03-06T10:44:27;13.20;99.90
19880;DHT22;10102;50.828;4.416;2024-03-06T10:47:04;13.50;99.90
19880;DHT22;10102;50.828;4.416;2024-03-06T10:49:32;13.70;99.90
19880;DHT22;10102;50.828;4.416;2024-03-06T10:52:04;13.50;99.90
19880;DHT22;10102;50.828;4.416;2024-03-06T10:54:32;13.60;99.90
19880;DHT22;10102;50.828;4.416;2024-03-06T10:57:00;13.50;99.90
19880;DHT22;10102;50.828;4.416;2024-03-06T10:59:27;13.80;99.90
19880;DHT22;10102;50.828;4.416;2024-03-06T11:01:57;14.10;99.90
19880;DHT22;10102;50.828;4.416;2024-03-06T11:04:26;14.10;99.90
19880;DHT22;10102;50.828;4.416;2024-03-06T11:06:56;15.40;99.90
19880;DHT22;10102;50.828;4.416;2024-03-06T11:09:22;16.60;99.90
19880;DHT22;10102;50.828;4.416;2024-03-06T11:11:51;17.70;99.90
19880;DHT22;10102;50.828;4.416;2024-03-06T11:16:58;16.70;99.90
19880;DHT22;10102;50.828;4.416;2024-03-06T11:19:25;16.40;99.90
19880;DHT22;10102;50.828;4.416;2024-03-06T11:21:51;16.30;99.90
19880;DHT22;10102;50.828;4.416;2024-03-06T11:26:47;16.30;99.90
19880;DHT22;10102;50.828;4.416;2024-03-06T11:29:19;16.20;99.90
19880;DHT22;10102;50.828;4.416;2024-03-06T11:32:06;18.20;99.90
19880;DHT22;10102;50.828;4.416;2024-03-06T11:34:34;20.00;99.90
19880;DHT22;10102;50.828;4.416;2024-03-06T11:37:03;16.80;99.90
19880;DHT22;10102;50.828;4.416;2024-03-06T11:39:33;18.10;99.90
19880;DHT22;10102;50.828;4.416;2024-03-06T11:41:59;18.10;99.90
19880;DHT22;10102;50.828;4.416;2024-03-06T11:44:26;18.30;99.90
19880;DHT22;10102;50.828;4.416;2024-03-06T11:47:04;19.00;99.90
19880;DHT22;10102;50.828;4.416;2024-03-06T11:49:32;19.40;99.90
19880;DHT22;10102;50.828;4.416;2024-03-06T11:52:04;18.20;99.90
19880;DHT22;10102;50.828;4.416;2024-03-06T11:54:31;16.90;99.90
19880;DHT22;10102;50.828;4.416;2024-03-06T11:57:02;16.50;99.90
19880;DHT22;10102;50.828;4.416;2024-03-06T11:59:33;16.40;99.90
19880;DHT22;10102;50.828;4.416;2024-03-06T12:02:00;16.40;99.90
19880;DHT22;10102;50.828;4.416;2024-03-06T12:04:34;16.80;99.90
19880;DHT22;10102;50.828;4.416;2024-03-06T12:07:01;16.80;99.90
19880;DHT22;10102;50.828;4.416;2024-03-06T12:09:34;16.90;99.90
19880;DHT22;10102;50.828;4.416;2024-03-06T12:11:59;16.50;99.90
19880;DHT22;10102;50.828;4.416;2024-03-06T12:17:00;16.10;99.90
19880;DHT22;10102;50.828;4.416;2024-03-06T12:19:29;15.90;99.90
19880;DHT22;10102;50.828;4.416;2024-03-06T12:22:01;15.70;99.90
19880;DHT22;10102;50.828;4.416;2024-03-06T12:24:28;15.50;99.90
19880;DHT22;10102;50.828;4.416;2024-03-06T12:27:02;15.50;99.90
19880;DHT22;10102;50.828;4.416;2024-03-06T12:29:32;15.50;99.90
19880;DHT22;10102;50.828;4.416;2024-03-06T12:32:02;15.20;99.90
19880;DHT22;10102;50.828;4.416;2024-03-06T12:37:08;15.30;99.90
19880;DHT22;10102;50.828;4.416;2024-03-06T12:39:35;15.40;99.90
19880;DHT22;10102;50.828;4.416;2024-03-06T12:42:01;15.40;99.90
19880;DHT22;10102;50.828;4.416;2024-03-06T12:44:27;15.50;99.90
19880;DHT22;10102;50.828;4.416;2024-03-06T12:46:52;15.60;99.90
19880;DHT22;10102;50.828;4.416;2024-03-06T12:49:18;16.00;99.90
19880;DHT22;10102;50.828;4.416;2024-03-06T12:51:44;18.50;99.90
19880;DHT22;10102;50.828;4.416;2024-03-06T12:54:09;18.50;99.90
19880;DHT22;10102;50.828;4.416;2024-03-06T12:56:35;23.30;99.90
19880;DHT22;10102;50.828;4.416;2024-03-06T12:59:01;27.40;99.90
19880;DHT22;10102;50.828;4.416;2024-03-06T13:01:27;29.30;92.20
19880;DHT22;10102;50.828;4.416;2024-03-06T13:03:52;29.10;86.80
19880;DHT22;10102;50.828;4.416;2024-03-06T13:06:19;31.10;79.80
19880;DHT22;10102;50.828;4.416;2024-03-06T13:08:47;33.40;73.10
19880;DHT22;10102;50.828;4.416;2024-03-06T13:11:12;33.70;66.90
19880;DHT22;10102;50.828;4.416;2024-03-06T13:13:38;32.00;66.60
19880;DHT22;10102;50.828;4.416;2024-03-06T13:16:04;30.40;69.70
19880;DHT22;10102;50.828;4.416;2024-03-06T13:18:29;28.20;72.10
19880;DHT22;10102;50.828;4.416;2024-03-06T13:20:55;26.50;76.30
19880;DHT22;10102;50.828;4.416;2024-03-06T13:23:23;24.90;79.70
19880;DHT22;10102;50.828;4.416;2024-03-06T13:25:49;23.70;82.50
19880;DHT22;10102;50.828;4.416;2024-03-06T13:28:15;22.30;86.60
19880;DHT22;10102;50.828;4.416;2024-03-06T13:30:44;20.20;99.90
19880;DHT22;10102;50.828;4.416;2024-03-06T13:33:10;19.70;99.90
19880;DHT22;10102;50.828;4.416;2024-03-06T13:35:36;19.40;99.90
19880;DHT22;10102;50.828;4.416;2024-03-06T13:38:04;19.10;99.90
19880;DHT22;10102;50.828;4.416;2024-03-06T13:40:36;18.60;99.90
19880;DHT22;10102;50.828;4.416;2024-03-06T13:43:02;18.30;97.80
19880;DHT22;10102;50.828;4.416;2024-03-06T13:47:54;17.60;99.90
19880;DHT22;10102;50.828;4.416;2024-03-06T13:50:20;17.40;99.90
19880;DHT22;10102;50.828;4.416;2024-03-06T13:52:47;17.20;99.90
19880;DHT22;10102;50.828;4.416;2024-03-06T13:55:12;16.80;99.90
19880;DHT22;10102;50.828;4.416;2024-03-06T13:57:40;16.60;99.90
19880;DHT22;10102;50.828;4.416;2024-03-06T14:00:09;16.50;99.90
19880;DHT22;10102;50.828;4.416;2024-03-06T14:02:42;16.40;99.90
19880;DHT22;10102;50.828;4.416;2024-03-06T14:05:08;15.90;99.90
19880;DHT22;10102;50.828;4.416;2024-03-06T14:07:34;15.90;99.90
19880;DHT22;10102;50.828;4.416;2024-03-06T14:10:00;15.80;99.90
19880;DHT22;10102;50.828;4.416;2024-03-06T14:12:26;15.80;99.90
19880;DHT22;10102;50.828;4.416;2024-03-06T14:14:51;16.10;99.90
19880;DHT22;10102;50.828;4.416;2024-03-06T14:17:17;15.60;99.90
19880;DHT22;10102;50.828;4.416;2024-03-06T14:19:43;15.60;99.90
19880;DHT22;10102;50.828;4.416;2024-03-06T14:22:10;15.50;99.90
19880;DHT22;10102;50.828;4.416;2024-03-06T14:24:36;15.60;99.90
19880;DHT22;10102;50.828;4.416;2024-03-06T14:27:02;15.70;99.90
19880;DHT22;10102;50.828;4.416;2024-03-06T14:31:54;15.70;99.90
19880;DHT22;10102;50.828;4.416;2024-03-06T14:34:20;15.90;99.90
19880;DHT22;10102;50.828;4.416;2024-03-06T14:36:46;16.00;99.90
19880;DHT22;10102;50.828;4.416;2024-03-06T14:39:11;15.80;99.90
19880;DHT22;10102;50.828;4.416;2024-03-06T14:41:39;16.30;99.90
19880;DHT22;10102;50.828;4.416;2024-03-06T14:44:04;15.90;99.90
19880;DHT22;10102;50.828;4.416;2024-03-06T14:46:30;15.60;99.90
19880;DHT22;10102;50.828;4.416;2024-03-06T14:48:56;15.70;99.90
19880;DHT22;10102;50.828;4.416;2024-03-06T14:51:22;15.70;99.90
19880;DHT22;10102;50.828;4.416;2024-03-06T14:53:47;15.70;99.90
19880;DHT22;10102;50.828;4.416;2024-03-06T14:56:13;15.70;99.90
19880;DHT22;10102;50.828;4.416;2024-03-06T14:58:39;15.80;99.90
19880;DHT22;10102;50.828;4.416;2024-03-06T15:01:05;15.90;99.90
19880;DHT22;10102;50.828;4.416;2024-03-06T15:03:31;15.80;99.90
19880;DHT22;10102;50.828;4.416;2024-03-06T15:05:56;15.80;99.90
19880;DHT22;10102;50.828;4.416;2024-03-06T15:08:22;15.80;99.90
19880;DHT22;10102;50.828;4.416;2024-03-06T15:13:17;15.90;99.90
19880;DHT22;10102;50.828;4.416;2024-03-06T15:15:44;15.80;99.90
19880;DHT22;10102;50.828;4.416;2024-03-06T15:18:10;15.90;99.90
19880;DHT22;10102;50.828;4.416;2024-03-06T15:23:02;15.90;99.90
19880;DHT22;10102;50.828;4.416;2024-03-06T15:25:27;16.00;99.90
19880;DHT22;10102;50.828;4.416;2024-03-06T15:27:53;15.90;99.90
19880;DHT22;10102;50.828;4.416;2024-03-06T15:30:19;16.10;99.90
19880;DHT22;10102;50.828;4.416;2024-03-06T15:35:12;16.00;99.90
19880;DHT22;10102;50.828;4.416;2024-03-06T15:37:38;15.90;99.90
19880;DHT22;10102;50.828;4.416;2024-03-06T15:40:04;16.00;99.90
19880;DHT22;10102;50.828;4.416;2024-03-06T15:42:31;15.90;99.90
19880;DHT22;10102;50.828;4.416;2024-03-06T15:44:57;16.00;99.90
19880;DHT22;10102;50.828;4.416;2024-03-06T15:47:23;15.70;99.90
19880;DHT22;10102;50.828;4.416;2024-03-06T15:52:15;15.50;99.90
19880;DHT22;10102;50.828;4.416;2024-03-06T15:54:41;15.80;99.90
19880;DHT22;10102;50.828;4.416;2024-03-06T15:57:07;15.50;99.90
19880;DHT22;10102;50.828;4.416;2024-03-06T15:59:34;15.40;99.90
19880;DHT22;10102;50.828;4.416;2024-03-06T16:02:00;15.30;99.90
19880;DHT22;10102;50.828;4.416;2024-03-06T16:04:26;15.20;99.90
19880;DHT22;10102;50.828;4.416;2024-03-06T16:06:52;15.00;99.90
19880;DHT22;10102;50.828;4.416;2024-03-06T16:09:18;15.00;99.90
19880;DHT22;10102;50.828;4.416;2024-03-06T16:11:44;14.80;99.90
19880;DHT22;10102;50.828;4.416;2024-03-06T16:14:10;14.70;99.90
19880;DHT22;10102;50.828;4.416;2024-03-06T16:16:36;14.80;99.90
19880;DHT22;10102;50.828;4.416;2024-03-06T16:19:01;14.60;99.90
19880;DHT22;10102;50.828;4.416;2024-03-06T16:21:27;14.50;99.90
19880;DHT22;10102;50.828;4.416;2024-03-06T16:23:54;14.50;99.90
19880;DHT22;10102;50.828;4.416;2024-03-06T16:26:20;14.50;99.90
19880;DHT22;10102;50.828;4.416;2024-03-06T16:28:46;14.20;99.90
19880;DHT22;10102;50.828;4.416;2024-03-06T16:31:11;14.10;99.90
19880;DHT22;10102;50.828;4.416;2024-03-06T16:36:04;14.10;99.90
19880;DHT22;10102;50.828;4.416;2024-03-06T16:38:31;13.90;99.90
19880;DHT22;10102;50.828;4.416;2024-03-06T16:40:57;13.70;99.90
19880;DHT22;10102;50.828;4.416;2024-03-06T16:43:23;13.70;99.90
19880;DHT22;10102;50.828;4.416;2024-03-06T16:45:49;13.60;99.90
19880;DHT22;10102;50.828;4.416;2024-03-06T16:48:14;13.60;99.90
19880;DHT22;10102;50.828;4.416;2024-03-06T16:50:40;13.40;99.90
19880;DHT22;10102;50.828;4.416;2024-03-06T16:53:06;13.50;99.90
19880;DHT22;10102;50.828;4.416;2024-03-06T16:55:35;13.50;99.90
19880;DHT22;10102;50.828;4.416;2024-03-06T16:58:04;13.30;99.90
19880;DHT22;10102;50.828;4.416;2024-03-06T17:02:55;13.30;99.90
19880;DHT22;10102;50.828;4.416;2024-03-06T17:05:22;13.30;99.90
19880;DHT22;10102;50.828;4.416;2024-03-06T17:07:48;13.20;99.90
19880;DHT22;10102;50.828;4.416;2024-03-06T17:10:14;13.10;99.90